Latest Weather Observations for Ben Nevis

IDV60801

Issued at 3:42 pm EDT Saturday 22 February 2020 (issued every 10 minutes, with the page automatically refreshed every 10 minutes)

About weather observations | Map of weather stations | Latest weather observations for VIC | Other Formats
Station Details ID: 079101 Name: BEN NEVIS Lat: -37.23 Lon: 143.20 Height: 875.0 m
Data from the previous 72 hours. | See also: Recent months at Ben Nevis
Date/Time
EDT
Temp
°C
App
Temp
°C
Dew
Point
°C
Rel
Hum
%
Delta-T
°C
Wind Press
QNH
hPa
Press
MSL
hPa
Rain since
9am
mm
Dir  Spd
km/h
Gust
km/h
Spd
kts
Gust
kts
22/03:30pm 20.0 18.0 6.4 41 7.1 SW 6 11 3 6 - - 0.0
22/03:00pm 20.1 18.0 8.1 46 6.5 SW 9 17 5 9 - - 0.0
22/02:30pm 19.9 18.1 7.9 46 6.5 N 7 15 4 8 - - 0.0
22/02:00pm 19.4 16.7 7.5 46 6.3 WNW 11 17 6 9 - - 0.0
22/01:30pm 18.8 17.1 8.2 50 5.7 NNE 7 13 4 7 - - 0.0
22/01:00pm 17.8 15.9 7.5 51 5.4 E 7 13 4 7 - - 0.0
22/12:30pm 16.1 14.0 6.0 51 5.1 ESE 6 9 3 5 - - 0.0
22/12:00pm 16.7 15.1 7.9 56 4.7 SSE 6 11 3 6 - - 0.0
22/11:30am 15.4 13.6 7.2 58 4.2 E 6 13 3 7 - - 0.0
22/11:00am 14.3 11.6 5.4 55 4.4 ENE 9 15 5 8 - - 0.0
22/10:30am 14.1 11.6 6.7 61 3.8 ENE 9 17 5 9 - - 0.0
22/10:00am 12.5 8.3 5.9 64 3.3 E 17 26 9 14 - - 0.0
22/09:30am 11.2 5.1 4.7 64 3.1 ESE 26 39 14 21 - - 0.0
22/09:00am 10.2 5.0 5.6 73 2.2 ESE 22 35 12 19 - - 0.0
22/08:30am 9.3 3.4 5.7 78 1.7 ESE 26 37 14 20 - - 0.0
22/08:00am 8.8 3.2 5.2 78 1.7 SE 24 33 13 18 - - 0.0
22/07:30am 7.9 2.2 4.7 80 1.5 SE 24 35 13 19 - - 0.0
22/07:00am 7.6 2.2 4.4 80 1.5 ESE 22 33 12 18 - - 0.0
22/06:30am 7.6 2.2 4.4 80 1.5 SE 22 32 12 17 - - 0.0
22/06:00am 7.4 2.0 4.5 82 1.3 SE 22 33 12 18 - - 0.0
22/05:30am 7.3 1.5 4.4 82 1.3 SE 24 35 13 19 - - 0.0
22/05:00am 6.9 1.1 4.6 85 1.1 SE 24 35 13 19 - - 0.0
22/04:30am 6.8 1.1 5.0 88 0.8 SE 24 37 13 20 - - 0.0
22/04:00am 6.9 0.9 5.2 89 0.8 SE 26 41 14 22 - - 0.0
22/03:30am 6.8 1.6 5.3 90 0.7 SE 22 33 12 18 - - 0.0
22/03:00am 7.1 0.7 5.3 88 0.8 SE 28 39 15 21 - - 0.0
22/02:30am 6.9 1.7 5.7 92 0.6 SE 22 35 12 19 - - 0.0
22/02:00am 7.0 2.2 5.8 92 0.6 SE 20 39 11 21 - - 0.0
22/01:30am 7.0 2.3 5.9 93 0.5 SE 20 35 11 19 - - 0.0
22/01:00am 7.1 2.4 6.0 93 0.5 SE 20 33 11 18 - - 0.0
22/12:30am 7.4 2.8 6.3 93 0.5 SE 20 32 11 17 - - 0.0
22/12:00am 7.4 2.9 6.2 92 0.6 SE 19 33 10 18 - - 0.0
 
Date/Time
EDT
Temp
°C
App
Temp
°C
Dew
Point
°C
Rel
Hum
%
Delta-T
°C
Wind Press
QNH
hPa
Press
MSL
hPa
Rain since
9am
mm
Dir  Spd
km/h
Gust
km/h
Spd
kts
Gust
kts
21/11:30pm 7.5 2.0 6.1 91 0.7 SSE 24 39 13 21 - - 0.0
21/11:00pm 7.8 2.8 6.3 90 0.7 SSE 22 41 12 22 - - 0.0
21/10:30pm 8.1 3.0 6.1 87 1.0 SE 22 39 12 21 - - 0.0
21/10:00pm 8.7 4.0 6.2 84 1.2 SE 20 35 11 19 - - 0.0
21/09:30pm 9.3 3.9 6.2 81 1.5 SSE 24 39 13 21 - - 0.0
21/09:00pm 10.1 5.6 6.3 77 1.9 SSE 19 33 10 18 - - 0.0
21/08:30pm 11.1 7.1 6.5 73 2.3 SSE 17 28 9 15 - - 0.0
21/08:00pm 12.0 7.8 5.9 66 3.0 SSE 17 26 9 14 - - 0.0
21/07:30pm 13.0 8.3 6.1 63 3.4 S 20 37 11 20 - - 0.0
21/07:00pm 13.5 9.2 7.1 65 3.3 S 19 35 10 19 - - 0.0
21/06:30pm 14.3 11.0 8.0 66 3.3 S 15 30 8 16 - - 0.0
21/06:00pm 14.8 11.1 7.8 63 3.7 S 17 32 9 17 - - 0.0
21/05:30pm 14.8 10.7 7.8 63 3.7 S 19 35 10 19 - - 0.0
21/05:00pm 14.1 10.4 7.9 66 3.2 S 17 28 9 15 - - 0.0
21/04:30pm 14.4 10.4 8.1 66 3.3 S 19 35 10 19 - - 0.0
21/04:00pm 13.6 9.2 7.4 66 3.2 S 20 37 11 20 - - 0.0
21/03:30pm 14.3 10.6 8.0 66 3.3 S 17 37 9 20 - - 0.0
21/03:00pm 15.6 12.0 9.9 69 3.1 S 19 32 10 17 - - 0.0
21/02:30pm 14.2 10.1 8.8 70 2.9 S 20 35 11 19 - - 0.0
21/02:00pm 13.9 9.6 9.3 74 2.5 S 22 33 12 18 - - 0.0
21/01:30pm 14.2 11.1 9.0 71 2.8 SSE 15 32 8 17 - - 0.0
21/01:00pm 14.1 10.1 8.1 67 3.1 S 19 32 10 17 - - 0.0
21/12:30pm 12.8 8.5 7.9 72 2.5 S 20 32 11 17 - - 0.0
21/12:00pm 12.9 10.0 8.0 72 2.5 SSE 13 30 7 16 - - 0.0
21/11:30am 11.9 7.5 7.4 74 2.3 S 20 39 11 21 - - 0.0
21/11:00am 11.6 7.9 7.9 78 1.9 SSE 17 30 9 16 - - 0.0
21/10:30am 10.7 7.0 7.8 82 1.5 SSE 17 30 9 16 - - 0.0
21/10:00am 9.7 4.9 7.5 86 1.1 S 22 35 12 19 - - 0.0
21/09:30am 8.7 3.5 7.2 90 0.7 S 24 35 13 19 - - 0.0
21/09:00am 8.3 3.9 7.4 94 0.4 S 20 37 11 20 - - 0.0
21/08:30am 7.8 3.2 6.7 93 0.5 S 20 33 11 18 - - 0.0
21/08:00am 7.4 1.8 7.0 97 0.2 S 26 44 14 24 - - 0.0
21/07:30am 7.5 1.9 7.1 97 0.2 S 26 39 14 21 - - 0.0
21/07:09am 7.3 0.8 6.7 96 0.3 S 30 52 16 28 - - 0.0
21/07:00am 7.2 0.4 6.8 97 0.2 S 32 46 17 25 - - 0.0
21/06:30am 7.2 0.4 6.9 98 0.1 S 32 50 17 27 - - 0.0
21/06:00am 7.1 0.7 6.8 98 0.1 S 30 48 16 26 - - 0.0
21/05:55am 7.2 1.2 6.9 98 0.1 S 28 48 15 26 - - 0.0
21/05:30am 7.2 1.9 6.9 98 0.1 S 24 43 13 23 - - 0.0
21/05:00am 7.0 2.6 6.7 98 0.1 S 19 35 10 19 - - 0.0
21/04:30am 6.9 2.3 6.5 97 0.2 S 20 35 11 19 - - 0.0
21/04:00am 6.9 1.9 6.3 96 0.3 S 22 37 12 20 - - 0.0
21/03:30am 6.9 2.1 5.8 93 0.5 SSW 20 32 11 17 - - 0.0
21/03:00am 6.9 1.8 5.8 93 0.5 S 22 44 12 24 - - 0.0
21/02:30am 6.9 2.2 6.2 95 0.3 S 20 32 11 17 - - 0.0
21/02:00am 6.9 1.7 5.7 92 0.6 S 22 41 12 22 - - 0.0
21/01:30am 6.9 1.8 5.8 93 0.5 S 22 35 12 19 - - 0.0
21/01:00am 7.0 2.5 6.3 95 0.3 S 19 37 10 20 - - 0.0
21/12:30am 7.0 1.2 6.4 96 0.3 S 26 43 14 23 - - 0.0
21/12:00am 7.0 0.9 6.6 97 0.2 S 28 41 15 22 - - 0.0
 
Date/Time
EDT
Temp
°C
App
Temp
°C
Dew
Point
°C
Rel
Hum
%
Delta-T
°C
Wind Press
QNH
hPa
Press
MSL
hPa
Rain since
9am
mm
Dir  Spd
km/h
Gust
km/h
Spd
kts
Gust
kts
20/11:33pm 7.4 1.2 6.2 92 0.6 S 28 48 15 26 - - 0.0
20/11:30pm 7.3 1.4 5.9 91 0.7 S 26 37 14 20 - - 0.0
20/11:00pm 7.5 2.1 6.3 92 0.6 S 24 35 13 19 - - 0.0
20/10:30pm 7.9 3.3 6.5 91 0.7 S 20 33 11 18 - - 0.0
20/10:00pm 8.2 3.3 6.8 91 0.7 S 22 39 12 21 - - 0.0
20/09:30pm 8.4 2.8 7.0 91 0.7 S 26 39 14 21 - - 0.0
20/09:00pm 8.8 2.8 6.9 88 0.9 SSW 28 43 15 23 - - 0.0
20/08:30pm 9.4 4.2 7.3 87 1.0 SSW 24 35 13 19 - - 0.0
20/08:00pm 10.5 6.1 7.6 82 1.5 SSW 20 35 11 19 - - 0.0
20/07:30pm 11.3 7.1 7.4 77 2.0 SSW 19 32 10 17 - - 0.0
20/07:00pm 12.1 7.9 7.6 74 2.3 S 19 32 10 17 - - 0.0
20/06:30pm 12.7 8.6 8.0 73 2.4 SSW 19 30 10 16 - - 0.0
20/06:00pm 13.7 10.2 8.7 72 2.6 SSW 17 30 9 16 - - 0.0
20/05:30pm 13.3 10.3 9.2 76 2.2 SSW 15 28 8 15 - - 0.0
20/05:00pm 13.9 9.9 8.3 69 2.9 SSW 19 32 10 17 - - 0.0
20/04:30pm 12.9 9.3 8.4 74 2.3 S 17 28 9 15 - - 0.0
20/04:00pm 12.6 9.9 8.9 78 1.9 S 13 22 7 12 - - 0.0
20/03:30pm 12.0 8.7 8.1 77 2.0 SSW 15 30 8 16 - - 0.0
20/03:00pm 12.2 9.1 8.9 80 1.7 SSW 15 28 8 15 - - 0.0
20/02:30pm 11.7 8.4 8.0 78 1.9 SSW 15 24 8 13 - - 0.0
20/02:00pm 11.7 8.3 7.8 77 2.0 SSW 15 28 8 15 - - 0.0
20/01:30pm 11.1 6.8 7.0 76 2.1 SSW 19 33 10 18 - - 0.0
20/01:00pm 10.8 7.8 7.9 82 1.5 SSW 13 28 7 15 - - 0.0
20/12:30pm 10.3 6.6 6.5 77 1.9 SSE 15 30 8 16 - - 0.0
20/12:00pm 9.8 5.8 6.7 81 1.5 S 17 28 9 15 - - 0.0
20/11:30am 8.9 4.9 6.5 85 1.2 S 17 32 9 17 - - 0.0
20/11:00am 7.8 3.7 6.1 89 0.8 S 17 28 9 15 - - 0.0
20/10:30am 7.0 3.2 5.9 93 0.5 S 15 24 8 13 - - 0.0
20/10:00am 6.9 3.1 5.8 93 0.5 S 15 28 8 15 - - 0.0
20/09:30am 6.5 1.7 5.5 93 0.5 S 20 37 11 20 - - 0.0
20/09:00am 6.3 1.6 5.3 93 0.5 S 19 35 10 19 - - 2.8
20/08:30am 6.2 0.5 5.0 92 0.6 S 24 37 13 20 - - 2.8
20/08:00am 6.2 0.5 5.0 92 0.6 S 24 41 13 22 - - 2.8
20/07:30am 6.3 -0.1 5.4 94 0.4 S 28 43 15 23 - - 2.8
20/07:00am 6.1 -0.7 5.1 93 0.5 S 30 48 16 26 - - 2.8
20/06:30am 6.1 -1.1 4.9 92 0.6 S 32 54 17 29 - - 2.8
20/06:02am 6.1 -0.4 4.9 92 0.6 SSW 28 46 15 25 - - 2.8
20/06:00am 6.1 -0.7 4.9 92 0.6 S 30 46 16 25 - - 2.8
20/05:30am 5.9 -1.6 4.5 91 0.6 S 33 57 18 31 - - 2.8
20/05:00am 5.8 -1.5 4.6 92 0.5 S 32 50 17 27 - - 2.8
20/04:30am 5.7 -1.2 4.7 93 0.5 SSW 30 52 16 28 - - 2.8
20/04:00am 5.8 -1.0 5.1 95 0.3 SSW 30 54 16 29 - - 2.8
20/03:37am 5.7 -0.7 5.3 97 0.2 SSW 28 48 15 26 - - 2.8
20/03:30am 5.8 -0.2 5.4 97 0.2 SSW 26 44 14 24 - - 2.8
20/03:00am 6.1 -0.2 5.8 98 0.1 S 28 43 15 23 - - 2.8
20/02:30am 6.1 -0.1 6.0 99 0.0 S 28 54 15 29 - - 2.8
20/02:27am 6.0 -0.3 5.9 99 0.0 SSW 28 54 15 29 - - 2.8
20/02:00am 6.1 1.0 6.0 99 0.0 SSW 22 39 12 21 - - 2.8
20/01:40am 5.8 -0.5 5.7 99 0.0 S 28 48 15 26 - - 2.8
20/01:30am 5.9 0.0 5.8 99 0.0 S 26 43 14 23 - - 2.8
20/01:11am 6.2 0.0 6.1 99 0.0 SSW 28 48 15 26 - - 2.8
20/01:00am 6.1 0.6 6.0 99 0.0 S 24 39 13 21 - - 2.8
20/12:30am 6.5 1.5 6.4 99 0.0 S 22 37 12 20 - - 2.8
20/12:00am 7.1 1.8 7.0 99 0.0 S 24 44 13 24 - - 2.8
 
Date/Time
EDT
Temp
°C
App
Temp
°C
Dew
Point
°C
Rel
Hum
%
Delta-T
°C
Wind Press
QNH
hPa
Press
MSL
hPa
Rain since
9am
mm
Dir  Spd
km/h
Gust
km/h
Spd
kts
Gust
kts
19/11:30pm 7.6 1.3 7.5 99 0.0 S 30 52 16 28 - - 2.6
19/11:00pm 7.9 2.1 7.8 99 0.0 SSW 28 50 15 27 - - 2.6
19/10:30pm 8.2 2.4 8.1 99 0.1 SSW 28 46 15 25 - - 2.6
19/10:07pm 8.2 2.1 8.1 99 0.1 SSW 30 52 16 28 - - 2.4
19/10:00pm 8.4 2.7 8.3 99 0.1 SSW 28 43 15 23 - - 2.4
19/09:35pm 8.4 2.7 8.3 99 0.1 SSW 28 50 15 27 - - 2.4
19/09:30pm 8.5 2.4 8.4 99 0.1 SSW 30 41 16 22 - - 2.4
19/09:00pm 8.6 2.6 8.5 99 0.1 SSW 30 54 16 29 - - 2.4
19/08:30pm 8.6 2.6 8.5 99 0.1 SSW 30 48 16 26 - - 2.4
19/08:00pm 8.6 2.2 8.5 99 0.1 SSW 32 52 17 28 - - 2.2
19/07:33pm 9.0 3.0 8.7 98 0.2 SSW 30 48 16 26 - - 2.2
19/07:30pm 9.0 2.6 8.7 98 0.2 SSW 32 48 17 26 - - 2.2
19/07:00pm 9.3 3.4 9.2 99 0.1 SSW 30 48 16 26 - - 2.2
19/06:30pm 9.3 3.4 9.2 99 0.1 SSW 30 52 16 28 - - 2.2
19/06:08pm 9.7 3.6 9.6 99 0.1 SSW 32 50 17 27 - - 2.2
19/06:00pm 9.4 3.6 9.3 99 0.1 SSW 30 44 16 24 - - 2.2
19/05:30pm 9.4 3.2 9.3 99 0.1 SSW 32 57 17 31 - - 2.2
19/05:09pm 10.0 4.7 9.9 99 0.1 SSW 28 46 15 25 - - 2.2
19/05:00pm 9.9 5.0 9.8 99 0.1 SSW 26 43 14 23 - - 2.2
19/04:30pm 9.4 3.2 9.3 99 0.1 SSW 32 54 17 29 - - 2.0
19/04:00pm 10.7 5.6 10.5 99 0.1 SSW 28 50 15 27 - - 2.0

Other formats

Comma delimited format used in spreadsheet applications
http://www.bom.gov.au/fwo/IDV60801/IDV60801.94835.axf

JavaScript Object Notation format (JSON) in row-major order
http://www.bom.gov.au/fwo/IDV60801/IDV60801.94835.json

Data quality

Most of these data are generated automatically and are frequently updated. Quality checks on data are not normally performed. It is possible for incorrect values to appear. Refer to information at About Latest Weather Observations and please check the disclaimer before using these data.